createdAt,value
2018-01-12T00:05:43.394Z,2.39
2018-01-12T00:11:46.873Z,2.41
2018-01-12T00:17:50.358Z,2.40
2018-01-12T00:23:54.633Z,2.39
2018-01-12T00:29:59.010Z,2.39
2018-01-12T00:36:03.270Z,2.36
2018-01-12T00:42:07.472Z,2.28
2018-01-12T00:48:10.925Z,2.29
2018-01-12T00:54:14.405Z,2.19
2018-01-12T01:00:17.894Z,2.15
2018-01-12T01:06:22.196Z,2.02
2018-01-12T01:12:25.708Z,1.88
2018-01-12T01:18:31.065Z,1.88
2018-01-12T01:24:34.542Z,1.92
2018-01-12T01:30:38.136Z,2.05
2018-01-12T01:36:41.637Z,2.13
2018-01-12T01:42:45.089Z,2.19
2018-01-12T01:48:48.550Z,2.32
2018-01-12T01:54:51.997Z,2.44
2018-01-12T02:00:55.899Z,2.50
2018-01-12T02:06:59.400Z,2.55
2018-01-12T02:13:02.865Z,2.63
2018-01-12T02:19:07.247Z,2.70
2018-01-12T02:25:10.754Z,2.84
2018-01-12T02:31:14.202Z,2.74
2018-01-12T02:37:18.455Z,2.74
2018-01-12T02:43:23.785Z,2.88
2018-01-12T02:49:27.299Z,2.95
2018-01-12T02:55:30.750Z,2.91
2018-01-12T03:01:34.375Z,2.96
2018-01-12T03:07:37.839Z,2.98
2018-01-12T03:13:41.314Z,2.99
2018-01-12T03:19:44.786Z,3.01
2018-01-12T03:25:49.023Z,3.08
2018-01-12T03:31:52.525Z,3.08
2018-01-12T03:37:56.019Z,3.07
2018-01-12T03:43:59.501Z,3.13
2018-01-12T03:50:02.993Z,3.16
2018-01-12T03:56:06.636Z,3.18
2018-01-12T04:02:10.862Z,3.17
2018-01-12T04:08:14.594Z,3.23
2018-01-12T04:14:18.981Z,3.20
2018-01-12T04:20:22.447Z,3.21
2018-01-12T04:26:25.907Z,3.21
2018-01-12T04:32:29.599Z,3.22
2018-01-12T04:38:33.839Z,3.23
2018-01-12T04:44:37.653Z,3.23
2018-01-12T04:50:41.129Z,3.22
2018-01-12T04:56:44.647Z,3.23
2018-01-12T05:02:48.958Z,3.25
2018-01-12T05:08:52.453Z,3.25
2018-01-12T05:14:56.068Z,3.24
2018-01-12T05:20:59.757Z,3.19
2018-01-12T05:27:04.561Z,3.26
2018-01-12T05:33:08.861Z,3.33
2018-01-12T05:39:13.103Z,3.29
2018-01-12T05:45:17.365Z,3.37
2018-01-12T05:51:21.652Z,3.37
2018-01-12T05:57:26.893Z,3.36
2018-01-12T06:03:48.263Z,3.31
2018-01-12T06:09:51.818Z,3.30
2018-01-12T06:15:55.291Z,3.30
2018-01-12T06:21:58.856Z,3.34
2018-01-12T06:28:02.305Z,3.37
2018-01-12T06:34:05.774Z,3.39
2018-01-12T06:40:09.250Z,3.49
2018-01-12T06:46:13.491Z,3.52
2018-01-12T06:52:16.965Z,3.56
2018-01-12T06:58:20.572Z,3.52
2018-01-12T07:04:24.161Z,3.63
2018-01-12T07:10:28.319Z,3.55
2018-01-12T07:16:31.797Z,3.56
2018-01-12T07:29:17.829Z,3.69
2018-01-12T07:35:21.343Z,3.69
2018-01-12T07:41:24.956Z,3.66
2018-01-12T07:47:28.679Z,3.59
2018-01-12T07:53:32.962Z,3.59
2018-01-12T07:59:36.451Z,3.67
2018-01-12T08:05:39.931Z,3.75
2018-01-12T08:11:43.531Z,3.80
2018-01-12T08:17:47.018Z,3.79
2018-01-12T08:23:50.515Z,3.88
2018-01-12T08:29:54.278Z,3.91
2018-01-12T08:35:58.105Z,3.94
2018-01-12T08:42:01.607Z,3.98
2018-01-12T08:48:05.918Z,4.01
2018-01-12T08:54:09.407Z,4.12
2018-01-12T09:00:12.888Z,4.14
2018-01-12T09:06:17.135Z,4.23
2018-01-12T09:12:21.385Z,4.02
2018-01-12T09:18:32.022Z,4.08
2018-01-12T09:24:35.531Z,4.40
2018-01-12T09:30:39.147Z,4.74
2018-01-12T09:36:42.743Z,4.71
2018-01-12T09:42:46.295Z,4.80
2018-01-12T09:48:52.213Z,4.62
2018-01-12T09:54:55.861Z,4.64
2018-01-12T10:01:05.477Z,4.61
2018-01-12T10:07:19.629Z,4.75
2018-01-12T10:13:23.201Z,4.65
2018-01-12T10:19:26.703Z,4.64
2018-01-12T10:25:30.297Z,4.60
2018-01-12T10:31:51.805Z,4.70
2018-01-12T10:37:55.842Z,4.79
2018-01-12T10:43:59.565Z,4.82
2018-01-12T10:50:29.590Z,4.93
2018-01-12T10:56:33.850Z,4.98
2018-01-12T11:02:38.153Z,4.90
2018-01-12T11:08:41.727Z,4.95
2018-01-12T11:14:45.242Z,4.96
2018-01-12T11:20:49.493Z,4.95
2018-01-12T11:26:53.137Z,4.94
2018-01-12T11:32:56.753Z,4.95
2018-01-12T11:39:00.286Z,4.99
2018-01-12T11:45:04.513Z,5.06
2018-01-12T11:51:08.005Z,5.02
2018-01-12T11:57:12.274Z,5.22
2018-01-12T12:03:16.519Z,5.19
2018-01-12T12:09:19.985Z,5.17
2018-01-12T12:15:23.476Z,5.12
2018-01-12T12:21:27.218Z,5.15
2018-01-12T12:27:30.746Z,5.18
2018-01-12T12:33:34.222Z,5.15
2018-01-12T12:39:38.496Z,5.24
2018-01-12T12:45:42.105Z,5.23
2018-01-12T12:51:45.614Z,5.18
2018-01-12T12:57:49.118Z,5.07
2018-01-12T13:03:52.631Z,5.19
2018-01-12T13:09:56.370Z,5.30
2018-01-12T13:16:01.442Z,5.31
2018-01-12T13:22:04.954Z,5.33
2018-01-12T13:28:08.711Z,5.37
2018-01-12T13:34:12.161Z,5.34
2018-01-12T13:40:16.426Z,5.41
2018-01-12T13:46:19.915Z,5.44
2018-01-12T13:52:23.389Z,5.39
2018-01-12T13:58:27.327Z,5.33
2018-01-12T14:04:30.862Z,5.33
2018-01-12T14:10:34.367Z,5.36
2018-01-12T14:16:37.951Z,5.37
2018-01-12T14:22:42.213Z,5.30
2018-01-12T14:28:46.610Z,5.24
2018-01-12T14:34:50.212Z,5.18
2018-01-12T14:40:53.694Z,5.16
2018-01-12T14:46:58.099Z,5.14
2018-01-12T14:53:01.588Z,5.08
2018-01-12T14:59:05.169Z,5.12
2018-01-12T15:05:08.677Z,5.11
2018-01-12T15:11:12.312Z,5.18
2018-01-12T15:17:15.783Z,5.09
2018-01-12T15:23:19.277Z,5.02
2018-01-12T15:29:22.853Z,5.05
2018-01-12T15:35:26.524Z,5.03
2018-01-12T15:41:30.809Z,5.09
2018-01-12T15:47:34.300Z,5.00
2018-01-12T15:53:37.792Z,5.07
2018-01-12T15:59:41.421Z,4.96
2018-01-12T16:05:44.885Z,4.85
2018-01-12T16:11:48.346Z,4.76
2018-01-12T16:17:51.840Z,4.66
2018-01-12T16:23:55.360Z,4.71
2018-01-12T16:29:58.857Z,4.72
2018-01-12T16:36:02.623Z,4.67
2018-01-12T16:42:06.137Z,4.61
2018-01-12T16:48:10.529Z,4.58
2018-01-12T16:54:14.107Z,4.52
2018-01-12T17:00:17.596Z,4.53
2018-01-12T17:06:21.220Z,4.51
2018-01-12T17:12:24.942Z,4.46
2018-01-12T17:18:28.566Z,4.45
2018-01-12T17:24:32.832Z,4.43
2018-01-12T17:30:36.323Z,4.50
2018-01-12T17:36:40.591Z,4.58
2018-01-12T17:42:44.866Z,4.62
2018-01-12T17:48:49.130Z,4.55
2018-01-12T17:54:53.437Z,4.58
2018-01-12T18:00:56.927Z,4.60
2018-01-12T18:07:00.431Z,4.52
2018-01-12T18:13:03.904Z,4.52
2018-01-12T18:19:07.390Z,4.55
2018-01-12T18:25:11.182Z,4.62
2018-01-12T18:31:15.447Z,4.62
2018-01-12T18:37:18.939Z,4.73
2018-01-12T18:43:22.424Z,4.66
2018-01-12T18:49:26.019Z,4.71
2018-01-12T18:55:29.738Z,4.73
2018-01-12T19:01:34.085Z,4.76
2018-01-12T19:07:37.585Z,4.72
2018-01-12T19:13:41.139Z,4.75
2018-01-12T19:19:44.619Z,4.79
2018-01-12T19:25:48.859Z,4.78
2018-01-12T19:31:52.398Z,4.80
2018-01-12T19:37:56.093Z,4.74
2018-01-12T19:43:59.637Z,4.63
2018-01-12T19:50:03.456Z,4.62
2018-01-12T19:56:06.992Z,4.65
2018-01-12T20:02:10.450Z,4.62
2018-01-12T20:08:13.998Z,4.54
2018-01-12T20:14:17.506Z,4.49
2018-01-12T20:20:21.005Z,4.54
2018-01-12T20:26:24.923Z,4.51
2018-01-12T20:32:28.534Z,4.47
2018-01-12T20:38:32.007Z,4.45
2018-01-12T20:44:35.486Z,4.38
2018-01-12T20:50:38.990Z,4.40
2018-01-12T20:56:42.478Z,4.39
2018-01-12T21:02:45.958Z,4.36
2018-01-12T21:08:49.429Z,4.32
2018-01-12T21:14:53.740Z,4.16
2018-01-12T21:20:58.158Z,4.17
2018-01-12T21:27:01.741Z,4.16
2018-01-12T21:33:06.012Z,4.25
2018-01-12T21:39:10.286Z,4.26
2018-01-12T21:45:14.558Z,4.26
2018-01-12T21:51:18.832Z,4.26
2018-01-12T21:57:23.059Z,4.25
2018-01-12T22:03:27.225Z,4.19
2018-01-12T22:09:30.736Z,4.14
2018-01-12T22:15:34.225Z,4.18
2018-01-12T22:21:37.706Z,4.17
2018-01-12T22:27:41.301Z,4.82
2018-01-12T22:33:44.993Z,4.46
2018-01-12T22:39:48.479Z,4.24
2018-01-12T22:45:52.745Z,4.10
2018-01-12T22:51:56.404Z,4.05
2018-01-12T22:57:59.996Z,3.99
2018-01-12T23:04:03.459Z,3.99
2018-01-12T23:10:06.935Z,4.00
2018-01-12T23:16:11.331Z,3.98
2018-01-12T23:22:14.834Z,4.09
2018-01-12T23:28:18.396Z,4.07
2018-01-12T23:34:21.888Z,4.17
2018-01-12T23:40:26.153Z,4.16
2018-01-12T23:46:29.652Z,4.18
2018-01-12T23:52:33.922Z,4.16
2018-01-12T23:58:38.139Z,4.18
